Time;durP1;ratioP1;P1;durP2;ratioP2;P2;SDS_P1;SDS_P2;PMS_P1;PMS_P2;Temp;Humidity;BMP_temperature;BMP_pressure;BME280_temperature;BME280_humidity;BME280_pressure;Samples;Min_cycle;Max_cycle;Signal;HPM_P1;HPM_P2
2023/10/11 00:00:25;;;;;;;15.32;5.90;;;17.10;1.00;;;;;;5093514;28;20405;-72
2023/10/11 00:02:51;;;;;;;14.00;5.90;;;17.10;1.00;;;;;;5094050;28;20381;-72
2023/10/11 00:05:19;;;;;;;10.38;5.95;;;17.00;1.00;;;;;;5093935;28;20039;-72
2023/10/11 00:07:44;;;;;;;14.27;6.10;;;16.90;1.00;;;;;;5093985;28;20042;-71
2023/10/11 00:10:11;;;;;;;10.05;6.00;;;16.80;1.00;;;;;;5093007;28;20111;-71
2023/10/11 00:12:41;;;;;;;17.00;6.50;;;16.80;1.00;;;;;;5093942;28;20032;-71
2023/10/11 00:15:08;;;;;;;17.52;6.68;;;16.70;1.00;;;;;;5093619;28;20023;-71
2023/10/11 00:17:36;;;;;;;18.35;6.30;;;16.70;1.00;;;;;;5097359;28;20539;-72
2023/10/11 00:20:11;;;;;;;11.50;6.30;;;16.70;1.00;;;;;;5096405;28;20057;-72
2023/10/11 00:22:37;;;;;;;14.32;6.32;;;16.80;1.00;;;;;;5097308;28;20431;-71
2023/10/11 00:25:04;;;;;;;11.18;5.82;;;16.70;1.00;;;;;;5097173;28;20062;-72
2023/10/11 00:27:30;;;;;;;11.18;6.05;;;16.70;1.00;;;;;;5097293;28;20381;-72
2023/10/11 00:29:55;;;;;;;13.57;6.25;;;16.50;1.00;;;;;;5096358;28;20131;-71
2023/10/11 00:32:22;;;;;;;12.98;6.15;;;16.40;1.00;;;;;;5097456;28;20032;-72
2023/10/11 00:34:47;;;;;;;12.82;6.53;;;16.30;1.00;;;;;;5096146;28;20016;-71
2023/10/11 00:37:14;;;;;;;14.80;6.25;;;16.10;1.00;;;;;;5096390;28;20054;-72
2023/10/11 00:39:40;;;;;;;11.35;6.50;;;16.20;1.00;;;;;;5096635;28;20024;-72
2023/10/11 00:42:06;;;;;;;17.33;6.45;;;16.20;1.00;;;;;;5096854;28;20055;-72
2023/10/11 00:44:32;;;;;;;17.52;6.40;;;16.30;1.00;;;;;;5096913;28;20531;-72
2023/10/11 00:47:00;;;;;;;14.73;6.25;;;16.50;1.00;;;;;;5096935;28;20377;-71
2023/10/11 00:49:35;;;;;;;12.93;6.30;;;16.60;1.00;;;;;;5096903;28;20533;-71
2023/10/11 00:52:06;;;;;;;13.40;6.30;;;16.70;1.00;;;;;;5097118;28;20020;-72
2023/10/11 00:54:33;;;;;;;13.10;5.75;;;16.70;1.00;;;;;;5096743;28;20031;-72
2023/10/11 00:56:59;;;;;;;12.57;5.68;;;16.80;1.00;;;;;;5096656;28;20059;-72
2023/10/11 00:59:25;;;;;;;17.77;6.40;;;16.80;1.00;;;;;;5096284;28;20369;-72
2023/10/11 01:01:51;;;;;;;13.48;6.05;;;16.70;1.00;;;;;;5096536;28;20056;-72
2023/10/11 01:04:19;;;;;;;15.98;7.07;;;16.70;1.00;;;;;;5096791;28;20515;-72
2023/10/11 01:06:48;;;;;;;13.45;6.40;;;16.70;1.00;;;;;;5096598;28;20093;-76
2023/10/11 01:09:17;;;;;;;13.73;6.05;;;16.80;1.00;;;;;;5096085;28;20040;-71
2023/10/11 01:11:43;;;;;;;14.32;5.40;;;16.80;1.00;;;;;;5096240;28;20024;-71
2023/10/11 01:14:09;;;;;;;16.55;6.80;;;16.80;1.00;;;;;;5096417;28;20035;-71
2023/10/11 01:16:35;;;;;;;10.70;6.20;;;16.80;1.00;;;;;;5096665;28;20454;-72
2023/10/11 01:19:01;;;;;;;13.88;6.55;;;16.70;1.00;;;;;;5095313;28;20078;-72
2023/10/11 01:21:32;;;;;;;10.43;5.63;;;16.70;1.00;;;;;;5096517;28;20126;-71
2023/10/11 01:23:58;;;;;;;13.57;6.05;;;16.70;1.00;;;;;;5096028;28;20032;-71
2023/10/11 01:26:24;;;;;;;16.83;6.40;;;16.80;1.00;;;;;;5096417;28;20032;-72
2023/10/11 01:28:49;;;;;;;12.80;5.90;;;16.80;1.00;;;;;;5095682;28;20051;-71
2023/10/11 01:31:18;;;;;;;11.40;5.70;;;16.70;1.00;;;;;;5095765;28;20028;-72
2023/10/11 01:33:48;;;;;;;14.95;6.28;;;16.70;1.00;;;;;;5095944;28;20350;-72
2023/10/11 01:36:15;;;;;;;14.25;6.03;;;16.70;1.00;;;;;;5095564;28;20455;-72
2023/10/11 01:38:49;;;;;;;12.63;6.05;;;16.70;1.00;;;;;;5096220;28;20020;-71
2023/10/11 01:41:19;;;;;;;13.50;6.00;;;16.70;1.00;;;;;;5094892;28;20024;-72
2023/10/11 01:43:46;;;;;;;15.85;6.15;;;16.70;1.00;;;;;;5095808;28;20032;-72
2023/10/11 01:46:15;;;;;;;11.95;6.13;;;16.50;1.00;;;;;;5095357;28;20028;-72
2023/10/11 01:48:41;;;;;;;10.63;5.72;;;16.40;1.00;;;;;;5095440;28;20032;-71
2023/10/11 01:51:09;;;;;;;12.02;6.03;;;16.20;1.00;;;;;;5095333;28;20073;-72
2023/10/11 01:53:35;;;;;;;16.38;6.30;;;16.10;1.00;;;;;;5094933;28;20082;-72
2023/10/11 01:56:01;;;;;;;14.57;6.43;;;16.10;13.10;;;;;;5094980;28;20030;-72
2023/10/11 01:58:27;;;;;;;19.00;6.78;;;16.30;6.10;;;;;;5095103;28;20027;-72
2023/10/11 02:00:53;;;;;;;14.05;6.43;;;16.40;1.00;;;;;;5095251;28;20032;-72
2023/10/11 02:03:19;;;;;;;15.10;6.70;;;16.60;1.00;;;;;;5095676;28;20043;-71
2023/10/11 02:05:44;;;;;;;20.15;7.00;;;16.70;1.00;;;;;;5095670;28;20462;-72
2023/10/11 02:08:16;;;;;;;15.18;5.90;;;16.80;1.00;;;;;;5095582;28;20366;-71
2023/10/11 02:10:44;;;;;;;16.85;6.55;;;16.70;1.00;;;;;;5095332;28;20478;-71
2023/10/11 02:13:10;;;;;;;11.90;6.18;;;16.80;1.00;;;;;;5094942;28;20020;-72
2023/10/11 02:15:37;;;;;;;20.27;6.47;;;16.80;1.00;;;;;;5095230;28;20039;-71
2023/10/11 02:18:07;;;;;;;18.15;6.93;;;16.90;1.00;;;;;;5095221;28;20024;-71
2023/10/11 02:20:35;;;;;;;14.05;7.00;;;17.00;1.00;;;;;;5095437;28;20032;-71
2023/10/11 02:23:00;;;;;;;22.63;6.65;;;17.10;1.00;;;;;;5095303;28;20078;-71
2023/10/11 02:25:26;;;;;;;14.68;6.25;;;17.20;1.00;;;;;;5094993;28;20031;-71
2023/10/11 02:27:53;;;;;;;18.40;6.80;;;17.30;1.00;;;;;;5094962;28;20028;-71
2023/10/11 02:30:21;;;;;;;14.40;6.95;;;17.30;1.00;;;;;;5093964;28;20409;-71
2023/10/11 02:32:49;;;;;;;14.25;7.15;;;17.30;1.00;;;;;;5095045;28;20028;-71
2023/10/11 02:35:15;;;;;;;22.00;7.50;;;17.50;1.00;;;;;;5094638;28;20028;-71
2023/10/11 02:37:45;;;;;;;13.10;6.55;;;17.50;1.00;;;;;;5094753;28;20024;-71
2023/10/11 02:40:16;;;;;;;16.15;6.47;;;17.60;1.00;;;;;;5094630;28;20111;-71
2023/10/11 02:42:43;;;;;;;17.67;6.93;;;17.60;1.00;;;;;;5094578;28;20390;-72
2023/10/11 02:45:12;;;;;;;13.18;6.45;;;17.50;1.00;;;;;;5094626;28;20462;-71
2023/10/11 02:47:39;;;;;;;17.13;6.97;;;17.60;1.00;;;;;;5094932;28;20485;-71
2023/10/11 02:50:06;;;;;;;15.93;6.55;;;17.60;1.00;;;;;;5094550;28;20020;-71
2023/10/11 02:52:36;;;;;;;16.25;6.38;;;17.70;1.00;;;;;;5094320;28;20103;-71
2023/10/11 02:55:16;;;;;;;14.45;6.65;;;17.70;1.00;;;;;;5094709;28;20020;-71
2023/10/11 02:57:43;;;;;;;17.40;6.28;;;17.60;1.00;;;;;;5094230;28;20028;-71
2023/10/11 03:00:24;;;;;;;15.95;7.00;;;17.70;1.00;;;;;;5094602;28;20081;-72
2023/10/11 03:02:54;;;;;;;18.83;7.18;;;17.80;1.00;;;;;;5094310;28;20024;-71
2023/10/11 03:05:27;;;;;;;13.05;6.40;;;17.70;1.00;;;;;;5094590;28;20466;-71
2023/10/11 03:07:53;;;;;;;13.43;6.82;;;17.70;1.00;;;;;;5094260;28;20028;-71
2023/10/11 03:10:19;;;;;;;14.25;6.15;;;17.70;1.00;;;;;;5094213;28;20028;-72
2023/10/11 03:12:50;;;;;;;16.80;6.35;;;17.60;1.00;;;;;;5093945;28;20032;-71
2023/10/11 03:15:19;;;;;;;13.02;6.88;;;17.50;1.00;;;;;;5094163;28;20020;-71
2023/10/11 03:17:48;;;;;;;14.88;6.95;;;17.50;1.00;;;;;;5094503;28;20024;-71
2023/10/11 03:20:24;;;;;;;15.40;6.50;;;17.60;1.00;;;;;;5093889;28;20031;-71
2023/10/11 03:22:51;;;;;;;14.98;6.63;;;17.60;1.00;;;;;;5093991;28;20024;-71
2023/10/11 03:25:19;;;;;;;12.40;6.07;;;17.60;1.00;;;;;;5093276;28;20030;-71
2023/10/11 03:27:48;;;;;;;14.52;6.93;;;17.50;1.00;;;;;;5094112;28;20450;-71
2023/10/11 03:30:15;;;;;;;14.45;6.75;;;17.50;1.00;;;;;;5093123;28;20114;-71
2023/10/11 03:32:44;;;;;;;17.38;6.35;;;17.50;1.00;;;;;;5093757;28;20112;-71
2023/10/11 03:35:10;;;;;;;14.57;6.72;;;17.60;1.00;;;;;;5093737;28;20046;-70
2023/10/11 03:37:37;;;;;;;15.20;6.13;;;17.50;1.00;;;;;;5093828;28;20024;-71
2023/10/11 03:40:22;;;;;;;17.17;7.35;;;17.50;1.00;;;;;;5093681;28;20024;-71
2023/10/11 03:42:59;;;;;;;17.27;6.45;;;17.30;1.00;;;;;;5094156;28;20032;-71
2023/10/11 03:45:27;;;;;;;13.63;6.78;;;17.40;1.00;;;;;;5093577;28;20020;-71
2023/10/11 03:47:54;;;;;;;20.02;7.43;;;17.30;1.00;;;;;;5093873;28;20060;-71
2023/10/11 03:50:32;;;;;;;15.70;6.65;;;17.30;1.00;;;;;;5094253;28;20081;-71
2023/10/11 03:53:06;;;;;;;12.10;6.53;;;17.20;1.00;;;;;;5098256;28;20028;-71
2023/10/11 03:55:32;;;;;;;12.77;7.22;;;17.10;1.00;;;;;;5097893;28;20488;-71
2023/10/11 03:57:57;;;;;;;13.85;6.13;;;17.10;1.00;;;;;;5097455;28;20024;-71
2023/10/11 04:03:05;;;;;;;13.15;6.43;;;17.10;1.00;;;;;;5097024;28;20393;-71
2023/10/11 04:05:40;;;;;;;15.98;6.78;;;17.00;1.00;;;;;;5097935;28;20024;-71
2023/10/11 04:08:10;;;;;;;13.35;6.18;;;17.00;1.00;;;;;;5097930;28;20481;-71
2023/10/11 04:10:39;;;;;;;19.98;7.10;;;16.90;1.00;;;;;;5097594;28;20028;-71
2023/10/11 04:13:09;;;;;;;14.55;6.15;;;17.00;1.00;;;;;;5097090;28;20477;-71
2023/10/11 04:15:39;;;;;;;16.17;6.85;;;17.00;1.00;;;;;;5096906;28;20016;-71
2023/10/11 04:18:05;;;;;;;13.57;6.22;;;16.90;1.00;;;;;;5096930;28;20473;-71
2023/10/11 04:20:33;;;;;;;17.05;7.97;;;16.80;1.00;;;;;;5097404;28;20025;-71
2023/10/11 04:23:10;;;;;;;19.42;6.75;;;16.80;1.00;;;;;;5096571;28;20032;-71
2023/10/11 04:25:37;;;;;;;17.80;6.72;;;16.80;1.00;;;;;;5096313;28;20039;-71
2023/10/11 04:28:05;;;;;;;14.55;6.32;;;16.80;1.00;;;;;;5095299;28;20035;-71
2023/10/11 04:30:51;;;;;;;17.70;7.05;;;16.80;1.00;;;;;;5095251;28;20474;-71
2023/10/11 04:33:20;;;;;;;16.77;6.60;;;16.70;1.00;;;;;;5095647;28;20110;-71
2023/10/11 04:35:55;;;;;;;14.02;6.55;;;16.80;1.00;;;;;;5095673;28;20073;-70
2023/10/11 04:38:21;;;;;;;16.83;7.05;;;16.90;1.00;;;;;;5095478;28;20035;-71
2023/10/11 04:40:51;;;;;;;16.10;6.85;;;16.80;1.00;;;;;;5095489;28;20020;-70
2023/10/11 04:43:23;;;;;;;18.05;7.05;;;16.80;1.00;;;;;;5097388;28;20462;-70
2023/10/11 04:45:51;;;;;;;16.75;6.68;;;16.90;1.00;;;;;;5097390;28;20491;-70
2023/10/11 04:48:19;;;;;;;15.50;6.72;;;16.90;1.00;;;;;;5097002;28;20032;-70
2023/10/11 04:50:47;;;;;;;16.80;5.93;;;16.80;1.00;;;;;;5096811;28;20422;-71
2023/10/11 04:53:17;;;;;;;13.20;6.43;;;16.70;1.00;;;;;;5096780;28;20020;-71
2023/10/11 04:55:47;;;;;;;16.10;6.68;;;16.60;1.00;;;;;;5097023;28;20028;-75
2023/10/11 04:58:38;;;;;;;14.23;6.90;;;16.60;1.00;;;;;;5096971;28;20032;-71
2023/10/11 05:01:02;;;;;;;18.85;6.60;;;16.60;1.00;;;;;;5095371;28;20024;-71
2023/10/11 05:03:30;;;;;;;19.08;6.43;;;16.50;1.00;;;;;;5096885;28;20432;-72
2023/10/11 05:05:58;;;;;;;15.15;6.82;;;16.50;1.00;;;;;;5096574;28;20410;-71
2023/10/11 05:08:51;;;;;;;13.95;6.40;;;16.60;1.00;;;;;;5096058;28;20020;-71
2023/10/11 05:11:25;;;;;;;18.50;6.82;;;16.60;1.00;;;;;;5095661;28;20024;-71
2023/10/11 05:16:44;;;;;;;14.82;6.20;;;16.50;1.00;;;;;;5095523;28;20027;-71
2023/10/11 05:19:14;;;;;;;;;;;16.40;1.00;;;;;;5096780;28;20381;-71
2023/10/11 05:21:39;;;;;;;18.55;7.03;;;16.40;1.00;;;;;;5096284;28;19904;-71
2023/10/11 05:24:27;;;;;;;16.05;6.90;;;16.30;1.00;;;;;;5096579;28;20111;-71
2023/10/11 05:27:03;;;;;;;12.57;6.65;;;16.20;1.00;;;;;;5096142;28;20031;-71
2023/10/11 05:29:32;;;;;;;15.90;6.85;;;16.20;1.00;;;;;;5095457;28;20051;-71
2023/10/11 05:32:32;;;;;;;13.63;6.05;;;16.30;1.00;;;;;;5096347;28;20375;-71
2023/10/11 05:34:51;;;;;;;15.73;6.88;;;16.30;1.00;;;;;;5095173;28;20099;-71
2023/10/11 05:51:07;;;;;;;14.65;6.00;;;16.40;1.00;;;;;;5094769;28;20035;-71
2023/10/11 05:53:33;;;;;;;17.65;6.13;;;16.50;1.00;;;;;;5095579;28;20028;-70
2023/10/11 05:55:59;;;;;;;16.00;6.43;;;16.60;1.00;;;;;;5095834;28;20028;-70
2023/10/11 05:58:24;;;;;;;19.48;6.50;;;16.60;1.00;;;;;;5095383;28;20028;-71
2023/10/11 06:00:53;;;;;;;16.52;6.70;;;16.60;1.00;;;;;;5094899;28;20036;-71
2023/10/11 06:03:19;;;;;;;20.75;7.68;;;16.60;1.00;;;;;;5090973;28;20036;-72
2023/10/11 06:05:44;;;;;;;18.02;7.30;;;16.70;1.00;;;;;;5096219;28;20031;-71
2023/10/11 06:08:15;;;;;;;13.82;6.50;;;16.70;1.00;;;;;;5092389;28;20020;-71
2023/10/11 06:10:42;;;;;;;13.40;6.28;;;16.80;1.00;;;;;;5092808;28;20051;-70
2023/10/11 06:13:14;;;;;;;14.48;6.18;;;16.80;1.00;;;;;;5090559;28;20025;-71
2023/10/11 06:15:45;;;;;;;13.80;6.45;;;16.80;1.00;;;;;;5093346;28;20120;-71
2023/10/11 06:18:35;;;;;;;15.98;6.75;;;16.90;1.00;;;;;;5088252;28;20032;-71
2023/10/11 06:23:41;;;;;;;17.00;6.95;;;17.00;1.00;;;;;;5084285;28;20608;-70
2023/10/11 06:29:02;;;;;;;13.25;5.82;;;17.10;99.90;;;;;;5079754;28;20064;-71
2023/10/11 06:31:34;;;;;;;14.95;6.78;;;17.20;99.90;;;;;;5093113;28;20031;-71
2023/10/11 06:34:03;;;;;;;11.15;5.93;;;17.30;99.90;;;;;;5105520;28;20012;-70
2023/10/11 06:36:30;;;;;;;14.55;6.38;;;17.20;99.90;;;;;;5093597;28;20458;-71
2023/10/11 06:38:56;;;;;;;17.45;6.80;;;17.30;99.90;;;;;;5091097;28;20027;-71
2023/10/11 06:41:37;;;;;;;16.48;6.03;;;17.30;99.90;;;;;;5092079;28;20035;-70
2023/10/11 06:44:04;;;;;;;16.15;6.07;;;17.40;99.90;;;;;;5093271;28;20426;-71
2023/10/11 06:46:30;;;;;;;15.95;5.57;;;17.50;99.90;;;;;;5091231;28;20370;-71
2023/10/11 06:48:58;;;;;;;14.80;6.10;;;17.60;99.90;;;;;;5092215;28;20028;-76
2023/10/11 06:51:24;;;;;;;14.63;6.53;;;17.90;99.90;;;;;;5090657;28;20070;-71
2023/10/11 06:53:50;;;;;;;26.80;6.90;;;18.00;1.00;;;;;;5082831;28;20028;-70
2023/10/11 06:56:17;;;;;;;26.40;6.55;;;18.00;1.00;;;;;;5089406;28;20111;-71
2023/10/11 06:58:44;;;;;;;21.15;7.30;;;18.00;1.00;;;;;;5094460;28;20138;-70
2023/10/11 07:01:10;;;;;;;18.58;6.43;;;18.00;1.00;;;;;;5096521;28;20473;-70
2023/10/11 07:03:38;;;;;;;13.70;6.57;;;18.30;1.00;;;;;;5092482;28;20532;-71
2023/10/11 07:06:11;;;;;;;11.88;5.78;;;18.50;99.90;;;;;;5081134;28;20017;-71
2023/10/11 07:08:48;;;;;;;18.35;7.32;;;18.70;99.90;;;;;;5089483;28;20024;-71
2023/10/11 07:11:36;;;;;;;15.23;6.35;;;18.90;1.00;;;;;;5087838;28;20036;-71
2023/10/11 07:14:05;;;;;;;16.65;6.15;;;19.00;1.00;;;;;;5090881;28;20151;-71
2023/10/11 07:16:31;;;;;;;12.27;6.15;;;19.20;1.00;;;;;;5092406;28;20091;-68
2023/10/11 07:18:58;;;;;;;16.70;5.95;;;19.20;70.00;;;;;;5091560;28;20035;-67
2023/10/11 07:21:26;;;;;;;13.02;5.70;;;19.40;1.00;;;;;;5087088;28;20505;-67
2023/10/11 07:28:59;;;;;;;15.80;6.80;;;19.70;99.90;;;;;;5085451;28;20020;-66
2023/10/11 07:31:32;;;;;;;13.23;6.50;;;20.20;99.90;;;;;;5074004;28;20074;-68
2023/10/11 07:34:01;;;;;;;19.30;6.63;;;20.40;1.00;;;;;;5081621;28;20029;-67
2023/10/11 07:36:28;;;;;;;12.43;5.97;;;20.50;99.90;;;;;;5085631;28;20082;-68
2023/10/11 07:38:54;;;;;;;11.57;6.57;;;20.40;1.00;;;;;;5086122;28;20031;-68
2023/10/11 07:41:22;;;;;;;12.82;6.15;;;20.50;1.00;;;;;;5085324;28;20032;-67
2023/10/11 07:43:48;;;;;;;11.43;5.50;;;20.40;1.00;;;;;;5084740;28;20025;-68
2023/10/11 07:46:14;;;;;;;15.05;5.50;;;20.50;99.90;;;;;;5083154;28;20028;-68
2023/10/11 07:48:40;;;;;;;13.70;5.63;;;20.50;1.00;;;;;;5084428;28;20390;-68
2023/10/11 07:51:09;;;;;;;17.23;5.63;;;20.50;3.00;;;;;;5085102;28;20021;-68
2023/10/11 07:53:40;;;;;;;14.15;5.53;;;20.80;99.90;;;;;;5084550;28;20079;-68
2023/10/11 07:56:05;;;;;;;14.70;5.28;;;20.90;1.00;;;;;;5085833;28;20091;-68
2023/10/11 07:58:32;;;;;;;13.05;5.55;;;20.90;1.00;;;;;;5084136;28;20511;-68
2023/10/11 08:01:03;;;;;;;12.50;5.55;;;20.90;99.90;;;;;;5087155;28;20036;-69
2023/10/11 08:03:34;;;;;;;12.73;5.07;;;21.10;99.90;;;;;;5088549;28;20107;-69
2023/10/11 08:06:05;;;;;;;13.48;5.40;;;20.90;99.90;;;;;;5083801;28;20027;-69
2023/10/11 08:08:31;;;;;;;9.90;4.88;;;20.80;99.90;;;;;;5079687;28;20104;-67
2023/10/11 08:10:58;;;;;;;14.52;6.00;;;20.70;99.90;;;;;;5075043;28;20517;-67
2023/10/11 08:13:24;;;;;;;20.60;9.57;;;20.90;1.00;;;;;;5084889;28;20401;-67
2023/10/11 08:15:57;;;;;;;11.30;5.40;;;21.10;99.90;;;;;;5083301;28;20039;-69
2023/10/11 08:18:23;;;;;;;11.57;5.55;;;21.30;99.90;;;;;;5086245;28;20036;-69
2023/10/11 08:20:48;;;;;;;23.55;5.93;;;21.30;1.00;;;;;;5084785;28;20109;-69
2023/10/11 08:23:28;;;;;;;11.00;5.20;;;21.60;99.90;;;;;;5082808;28;20028;-68
2023/10/11 08:25:54;;;;;;;20.10;5.40;;;21.60;99.90;;;;;;5084742;28;20094;-70
2023/10/11 08:28:28;;;;;;;10.18;4.75;;;21.60;99.90;;;;;;5087421;28;20025;-69
2023/10/11 08:30:57;;;;;;;15.80;5.28;;;21.60;99.90;;;;;;5077226;28;20192;-69
2023/10/11 08:33:25;;;;;;;13.23;5.47;;;21.60;99.90;;;;;;5081476;28;20081;-68
2023/10/11 08:35:53;;;;;;;12.95;5.35;;;22.10;99.90;;;;;;5084610;28;20479;-69
2023/10/11 08:38:19;;;;;;;12.40;5.35;;;22.10;99.90;;;;;;5067948;28;20636;-68
2023/10/11 08:40:50;;;;;;;9.10;5.10;;;22.30;99.90;;;;;;5074552;28;20020;-69
2023/10/11 08:43:16;;;;;;;11.30;4.88;;;22.40;1.00;;;;;;5070868;28;20190;-67
2023/10/11 08:45:48;;;;;;;14.77;5.10;;;22.60;99.90;;;;;;5072731;28;20032;-69
2023/10/11 08:48:15;;;;;;;11.93;5.13;;;22.60;1.00;;;;;;5081939;28;20488;-70
2023/10/11 08:50:50;;;;;;;14.05;4.97;;;22.70;99.90;;;;;;5070160;28;20083;-68
2023/10/11 08:53:18;;;;;;;15.25;5.15;;;22.70;99.90;;;;;;5069316;28;20037;-69
2023/10/11 08:55:45;;;;;;;12.50;5.50;;;22.90;99.90;;;;;;5072267;28;20035;-70
2023/10/11 08:58:23;;;;;;;11.98;4.80;;;22.50;99.90;;;;;;5073928;28;20024;-70
2023/10/11 09:00:54;;;;;;;13.30;4.88;;;23.00;99.90;;;;;;5074376;28;20537;-70
2023/10/11 09:03:23;;;;;;;13.88;5.38;;;23.20;99.90;;;;;;5074285;28;20078;-70
2023/10/11 09:05:58;;;;;;;15.75;5.70;;;22.90;99.90;;;;;;5073663;28;20398;-70
2023/10/11 09:08:31;;;;;;;10.77;5.32;;;22.80;99.90;;;;;;5067238;28;20032;-69
2023/10/11 09:11:25;;;;;;;9.93;4.60;;;22.80;99.90;;;;;;5071547;28;20056;-69
2023/10/11 09:13:50;;;;;;;12.75;5.03;;;22.90;99.90;;;;;;5072027;28;20031;-70
2023/10/11 09:16:34;;;;;;;17.67;5.28;;;23.10;99.90;;;;;;5069233;28;20025;-70
2023/10/11 09:19:05;;;;;;;18.88;6.60;;;22.90;99.90;;;;;;5071073;28;20103;-69
2023/10/11 09:21:35;;;;;;;12.18;5.13;;;23.20;99.90;;;;;;5069754;28;20029;-69
2023/10/11 09:24:01;;;;;;;13.90;5.22;;;23.80;99.90;;;;;;5061264;28;20037;-70
2023/10/11 09:26:37;;;;;;;12.77;5.45;;;23.60;99.90;;;;;;5080684;28;20136;-69
2023/10/11 09:29:04;;;;;;;10.95;5.07;;;23.60;99.90;;;;;;5060648;28;20548;-68
2023/10/11 09:31:31;;;;;;;12.77;5.28;;;23.80;1.00;;;;;;5066520;28;20386;-70
2023/10/11 09:34:02;;;;;;;10.00;4.97;;;23.80;1.00;;;;;;5063765;28;20029;-70
2023/10/11 09:36:28;;;;;;;15.07;4.97;;;23.70;54.80;;;;;;5067102;28;20036;-70
2023/10/11 09:38:55;;;;;;;13.13;5.60;;;23.40;1.00;;;;;;5073562;28;20035;-68
2023/10/11 09:41:27;;;;;;;17.60;5.13;;;23.20;99.90;;;;;;5066290;28;20028;-69
2023/10/11 09:43:57;;;;;;;15.65;5.30;;;23.20;99.90;;;;;;5064121;28;20112;-71
2023/10/11 09:46:30;;;;;;;22.67;6.07;;;23.20;99.90;;;;;;5067258;28;20513;-69
2023/10/11 09:48:57;;;;;;;15.95;4.85;;;23.50;99.90;;;;;;5064668;28;20025;-75
2023/10/11 09:51:24;;;;;;;10.50;5.22;;;23.50;1.00;;;;;;5068866;28;20028;-69
2023/10/11 09:53:51;;;;;;;14.77;5.22;;;;;;;;;;5057642;28;20044;-70
2023/10/11 09:56:40;;;;;;;11.75;4.65;;;23.50;1.00;;;;;;5061844;28;20025;-68
2023/10/11 09:59:39;;;;;;;12.95;5.18;;;23.90;1.00;;;;;;5065426;28;20512;-70
2023/10/11 10:02:10;;;;;;;15.18;5.25;;;23.80;1.00;;;;;;5068044;28;20047;-69
2023/10/11 10:07:48;;;;;;;10.38;5.10;;;23.70;75.80;;;;;;5043032;28;20966;-70
2023/10/11 10:10:16;;;;;;;13.65;5.50;;;23.80;99.90;;;;;;5019865;28;20034;-69
2023/10/11 10:12:43;;;;;;;10.38;5.20;;;24.10;99.90;;;;;;5024270;28;20025;-69
2023/10/11 10:15:13;;;;;;;16.30;5.45;;;23.30;99.90;;;;;;5037737;28;20397;-73
2023/10/11 10:18:06;;;;;;;12.50;5.25;;;23.80;99.90;;;;;;5020516;28;20478;-76
2023/10/11 10:20:46;;;;;;;15.88;4.72;;;23.70;99.90;;;;;;5027294;28;20559;-75
2023/10/11 10:26:15;;;;;;;14.50;5.13;;;23.50;99.90;;;;;;5065203;22;20490;-75
2023/10/11 10:31:20;;;;;;;15.65;4.68;;;23.60;99.90;;;;;;5086353;28;20818;-73
2023/10/11 10:33:49;;;;;;;16.95;5.05;;;23.50;1.00;;;;;;5090113;28;20032;-74
2023/10/11 10:41:40;;;;;;;18.00;5.32;;;23.80;99.90;;;;;;5087642;28;20405;-75
2023/10/11 10:44:10;;;;;;;18.73;5.43;;;24.00;99.90;;;;;;5080253;28;20052;-75
2023/10/11 10:46:49;;;;;;;16.30;5.07;;;23.80;99.90;;;;;;5061565;28;20080;-74
2023/10/11 10:49:17;;;;;;;21.48;5.93;;;23.10;17.80;;;;;;5075225;28;20020;-74
2023/10/11 10:51:47;;;;;;;20.83;5.68;;;23.10;99.90;;;;;;5064667;28;20079;-74
2023/10/11 10:54:14;;;;;;;22.08;6.30;;;23.20;49.00;;;;;;5050308;28;20029;-74
2023/10/11 10:56:41;;;;;;;19.13;5.43;;;23.30;1.00;;;;;;5068797;28;20020;-74
2023/10/11 10:59:12;;;;;;;21.85;5.57;;;23.90;1.00;;;;;;5068331;28;20017;-75
2023/10/11 11:01:38;;;;;;;17.25;5.30;;;23.80;1.00;;;;;;5061664;28;20550;-74
2023/10/11 11:04:08;;;;;;;26.20;5.95;;;23.60;1.00;;;;;;5085635;28;20043;-74
2023/10/11 11:06:46;;;;;;;18.20;5.85;;;23.40;1.00;;;;;;5071947;28;20021;-74
2023/10/11 11:09:19;;;;;;;20.80;6.18;;;23.80;99.90;;;;;;5068513;28;20115;-76
2023/10/11 11:11:45;;;;;;;;;;;23.90;1.00;;;;;;5069944;28;20029;-74
2023/10/11 11:14:13;;;;;;;20.30;5.90;;;23.60;1.00;;;;;;5066836;28;20381;-76
2023/10/11 11:16:40;;;;;;;13.88;5.25;;;23.50;1.00;;;;;;5068006;28;20418;-76
2023/10/11 11:19:16;;;;;;;18.30;5.75;;;23.60;10.60;;;;;;5064447;28;20037;-75
2023/10/11 11:21:44;;;;;;;18.13;5.68;;;23.40;1.00;;;;;;5059377;28;20091;-72
2023/10/11 11:24:18;;;;;;;25.10;6.43;;;23.40;74.00;;;;;;5066570;28;20108;-74
2023/10/11 11:26:45;;;;;;;21.65;6.15;;;23.50;20.60;;;;;;5069915;28;20079;-74
2023/10/11 11:29:16;;;;;;;19.38;5.68;;;23.40;38.80;;;;;;5054530;28;20116;-75
2023/10/11 11:31:52;;;;;;;17.23;5.85;;;23.60;44.60;;;;;;5052724;28;20017;-74
2023/10/11 11:34:49;;;;;;;18.33;5.57;;;23.80;84.10;;;;;;5056572;28;20017;-74
2023/10/11 11:37:06;;;;;;;21.75;5.97;;;24.00;28.70;;;;;;5053485;28;20025;-74
2023/10/11 11:39:47;;;;;;;28.58;5.55;;;23.80;88.10;;;;;;5067359;28;20410;-74
2023/10/11 11:42:19;;;;;;;22.73;5.78;;;23.90;99.90;;;;;;5071834;28;20579;-74
2023/10/11 11:44:46;;;;;;;18.52;5.53;;;24.00;99.90;;;;;;5073171;28;20024;-73
2023/10/11 11:47:13;;;;;;;21.75;5.72;;;23.70;99.90;;;;;;5081648;28;20028;-71
2023/10/11 11:49:39;;;;;;;19.08;6.03;;;23.50;99.90;;;;;;5072193;28;20038;-72
2023/10/11 11:52:04;;;;;;;21.25;5.20;;;23.60;99.90;;;;;;5058279;28;20049;-74
2023/10/11 11:54:30;;;;;;;20.52;5.50;;;23.70;99.90;;;;;;5041453;28;20072;-73
2023/10/11 11:56:56;;;;;;;22.48;6.30;;;21.50;99.90;;;;;;5048353;28;20021;-72
2023/10/11 11:59:24;;;;;;;15.27;5.88;;;23.90;99.90;;;;;;5057072;28;20399;-73
2023/10/11 12:01:53;;;;;;;17.20;5.55;;;23.90;99.90;;;;;;5049465;28;20392;-73
2023/10/11 12:04:29;;;;;;;18.50;5.68;;;23.60;99.90;;;;;;5047663;28;20119;-73
2023/10/11 12:06:57;;;;;;;20.65;6.00;;;23.80;99.90;;;;;;5054336;28;20491;-73
2023/10/11 12:09:22;;;;;;;20.85;5.68;;;23.60;99.90;;;;;;5051358;28;20017;-74
2023/10/11 12:11:49;;;;;;;21.35;6.05;;;23.70;1.00;;;;;;5054878;28;20032;-74
2023/10/11 12:14:16;;;;;;;14.57;5.82;;;24.00;1.00;;;;;;5057756;28;20501;-74
2023/10/11 12:16:42;;;;;;;17.50;5.53;;;24.00;1.00;;;;;;5055927;28;20025;-75
2023/10/11 12:19:12;;;;;;;18.85;5.50;;;23.80;1.00;;;;;;5059867;28;20056;-74
2023/10/11 12:21:39;;;;;;;16.35;5.93;;;23.90;1.00;;;;;;5056487;28;20029;-74
2023/10/11 12:24:12;;;;;;;14.45;5.18;;;24.00;1.00;;;;;;5050688;28;20036;-75
2023/10/11 12:26:41;;;;;;;;;;;23.90;1.00;;;;;;5052357;28;20027;-74
2023/10/11 12:29:12;;;;;;;21.50;5.85;;;23.70;1.00;;;;;;5051420;28;20315;-74
2023/10/11 12:31:40;;;;;;;24.48;7.00;;;23.80;1.00;;;;;;5051189;28;20028;-74
2023/10/11 12:34:09;;;;;;;17.33;6.05;;;23.80;99.90;;;;;;5047806;28;20025;-74
2023/10/11 12:36:38;;;;;;;19.58;5.47;;;24.00;24.10;;;;;;5055001;28;20036;-73
2023/10/11 12:39:05;;;;;;;22.15;5.78;;;23.90;1.00;;;;;;5056084;28;20117;-78
2023/10/11 12:41:31;;;;;;;18.30;5.55;;;23.70;1.00;;;;;;5050899;28;20056;-80
2023/10/11 12:44:00;;;;;;;19.02;6.22;;;23.80;99.90;;;;;;5053578;28;20021;-75
2023/10/11 12:46:27;;;;;;;18.33;5.40;;;23.80;99.90;;;;;;5053623;28;20029;-78
2023/10/11 12:48:56;;;;;;;16.63;5.53;;;23.60;99.90;;;;;;5054969;28;20021;-77
2023/10/11 12:51:24;;;;;;;19.42;6.38;;;23.60;99.90;;;;;;5050197;28;20120;-76
2023/10/11 12:53:54;;;;;;;14.50;5.20;;;23.60;99.90;;;;;;5054142;28;20029;-76
2023/10/11 12:56:21;;;;;;;17.88;5.60;;;23.60;99.90;;;;;;5055064;28;20025;-76
2023/10/11 12:58:50;;;;;;;18.25;5.53;;;23.80;99.90;;;;;;5054766;28;20549;-76
2023/10/11 13:01:25;;;;;;;11.52;5.18;;;23.90;99.90;;;;;;5063793;28;20075;-77
2023/10/11 13:04:05;;;;;;;24.23;6.05;;;23.80;99.90;;;;;;5048336;28;20036;-78
2023/10/11 13:06:32;;;;;;;17.38;5.10;;;23.70;99.90;;;;;;5066392;28;20124;-79
2023/10/11 13:08:59;;;;;;;18.05;6.00;;;23.80;99.90;;;;;;5036626;28;20026;-78
2023/10/11 13:11:24;;;;;;;17.08;5.60;;;23.70;99.90;;;;;;5049491;28;20021;-78
2023/10/11 13:13:50;;;;;;;18.02;5.65;;;23.70;99.90;;;;;;5043303;28;20087;-78
2023/10/11 13:16:26;;;;;;;18.10;6.13;;;23.70;1.00;;;;;;5049749;28;20040;-78
2023/10/11 13:18:52;;;;;;;17.77;5.38;;;23.80;1.00;;;;;;5048146;28;20056;-78
2023/10/11 13:21:20;;;;;;;22.63;5.82;;;23.80;1.00;;;;;;5057137;28;20033;-79
2023/10/11 13:23:45;;;;;;;16.38;5.78;;;23.70;1.00;;;;;;5069886;28;20438;-77
2023/10/11 13:26:18;;;;;;;17.90;5.72;;;23.70;1.00;;;;;;5045495;28;20110;-78
2023/10/11 13:28:48;;;;;;;18.83;5.40;;;23.70;99.90;;;;;;5045993;28;20432;-78
2023/10/11 13:31:17;;;;;;;25.10;5.88;;;23.70;24.30;;;;;;5055389;28;20048;-78
2023/10/11 13:33:42;;;;;;;18.73;5.70;;;23.50;21.90;;;;;;5039131;28;20069;-79
2023/10/11 13:36:08;;;;;;;16.95;5.68;;;23.30;99.90;;;;;;5049151;28;20029;-80
2023/10/11 13:38:36;;;;;;;19.27;5.40;;;25.50;99.90;;;;;;5046513;28;20034;-77
2023/10/11 13:41:02;;;;;;;19.58;6.00;;;23.20;99.90;;;;;;5051438;28;20043;-78